Airfield :
LOGIN :

Register | Disclaimer

   EN    FR    IT 

 










Legend :    VFR   Marginal VFR   IFR   Intensive IFR   Very Intensive IFR
Visi :
Ceiling :
>= 8 km
>= 3000ft
5 to 8 km
1000 to 3000 ft
1500m to 5 km
500 to 1000 ft
800 to 1500m
200 to 500 ft
< 800m
< 200 ft
Symbols :   Thunderstorms  Fog  Heavy snow  Heavy precipitations  Wind > 20 kt
SIGMETs :     Misc.  Thunderstorms  Icing  Turbulence  Mountain Waves  Volcanic Ashes






- Airport Elevation : 2096 ft
- IATA code : AUR


LFLW - Aurillac

CURRENT METAR :
  • 180430Z AUTO 23005KT 190V260 8000 OVC009/// ///CB 17/16 Q1014

EXPIRED METARs :
  • 180400Z AUTO VRB02KT 9999 BKN015/// BKN022/// OVC033/// ///CB 18/17 Q1014
  • 180330Z AUTO 15005KT 120V200 9999 FEW013/// BKN022/// BKN032/// ///CB 18/17 Q1013
  • 180300Z AUTO 18004KT 140V220 9999 -RA BKN016/// OVC026/// ///CB 18/17 Q1013
  • 180230Z AUTO 16006KT 130V210 9999 -RA BKN022/// BKN029/// OVC070/// ///CB 18/16 Q1013
  • 180200Z AUTO 14005KT 9999 BKN024/// OVC029/// ///CB 17/15 Q1013
  • 180130Z AUTO 13005KT 9999 OVC027/// ///CB 16/15 Q1013

Expired Forecast.



MET'MAP, your aeronautical weather chart ! - Copyright ORBIFLY December 2007 - Disclaimer

ORBIFLY MET'MAP TEAM :

Programming & Development : Alexandra Zaïnal
Concept & original design : Baudouin d'Aumeries
Assistance for programming : Marc-Olivier Méhu
Technical & hardware support : Manuel Goepfert

Contact : metmap@orbifly.com




SOURCES & CREDITS :

   NOAA